sensor_id;sensor_type;location;lat;lon;timestamp;temperature;humidity
33476;DHT22;19814;48.224;11.422;2023-05-16T00:00:23;11.30;99.90
33476;DHT22;19814;48.224;11.422;2023-05-16T00:02:49;11.30;99.90
33476;DHT22;19814;48.224;11.422;2023-05-16T00:05:15;11.30;99.90
33476;DHT22;19814;48.224;11.422;2023-05-16T00:07:43;11.20;99.90
33476;DHT22;19814;48.224;11.422;2023-05-16T00:10:09;11.20;99.90
33476;DHT22;19814;48.224;11.422;2023-05-16T00:12:34;11.10;99.90
33476;DHT22;19814;48.224;11.422;2023-05-16T00:15:02;11.10;99.90
33476;DHT22;19814;48.224;11.422;2023-05-16T00:17:29;11.10;99.90
33476;DHT22;19814;48.224;11.422;2023-05-16T00:19:55;11.10;99.90
33476;DHT22;19814;48.224;11.422;2023-05-16T00:22:23;11.10;99.90
33476;DHT22;19814;48.224;11.422;2023-05-16T00:24:49;11.10;99.90
33476;DHT22;19814;48.224;11.422;2023-05-16T00:27:15;11.10;99.90
33476;DHT22;19814;48.224;11.422;2023-05-16T00:29:41;11.10;99.90
33476;DHT22;19814;48.224;11.422;2023-05-16T00:32:06;11.10;99.90
33476;DHT22;19814;48.224;11.422;2023-05-16T00:34:33;11.10;99.90
33476;DHT22;19814;48.224;11.422;2023-05-16T00:36:59;11.10;99.90
33476;DHT22;19814;48.224;11.422;2023-05-16T00:39:25;11.10;99.90
33476;DHT22;19814;48.224;11.422;2023-05-16T00:41:51;11.10;99.90
33476;DHT22;19814;48.224;11.422;2023-05-16T00:44:16;11.00;99.90
33476;DHT22;19814;48.224;11.422;2023-05-16T00:46:42;11.10;99.90
33476;DHT22;19814;48.224;11.422;2023-05-16T00:49:08;11.00;99.90
33476;DHT22;19814;48.224;11.422;2023-05-16T00:51:34;11.00;99.90
33476;DHT22;19814;48.224;11.422;2023-05-16T00:54:01;11.00;99.90
33476;DHT22;19814;48.224;11.422;2023-05-16T00:56:27;11.00;99.90
33476;DHT22;19814;48.224;11.422;2023-05-16T00:58:53;10.90;99.90
33476;DHT22;19814;48.224;11.422;2023-05-16T01:01:19;10.90;99.90
33476;DHT22;19814;48.224;11.422;2023-05-16T01:03:46;10.90;99.90
33476;DHT22;19814;48.224;11.422;2023-05-16T01:06:12;10.90;99.90
33476;DHT22;19814;48.224;11.422;2023-05-16T01:08:37;10.90;99.90
33476;DHT22;19814;48.224;11.422;2023-05-16T01:22:29;10.90;99.90
33476;DHT22;19814;48.224;11.422;2023-05-16T01:27:34;11.00;99.90
33476;DHT22;19814;48.224;11.422;2023-05-16T01:30:00;10.90;99.90
33476;DHT22;19814;48.224;11.422;2023-05-16T01:32:26;10.90;99.90
33476;DHT22;19814;48.224;11.422;2023-05-16T01:34:52;10.90;99.90
33476;DHT22;19814;48.224;11.422;2023-05-16T01:37:34;11.00;99.90
33476;DHT22;19814;48.224;11.422;2023-05-16T01:40:08;11.00;99.90
33476;DHT22;19814;48.224;11.422;2023-05-16T01:42:43;10.90;99.90
33476;DHT22;19814;48.224;11.422;2023-05-16T01:45:25;11.00;99.90
33476;DHT22;19814;48.224;11.422;2023-05-16T01:48:19;10.90;99.90
33476;DHT22;19814;48.224;11.422;2023-05-16T01:50:51;10.90;99.90
33476;DHT22;19814;48.224;11.422;2023-05-16T01:53:22;10.90;99.90
33476;DHT22;19814;48.224;11.422;2023-05-16T01:55:56;10.90;99.90
33476;DHT22;19814;48.224;11.422;2023-05-16T01:58:25;10.90;99.90
33476;DHT22;19814;48.224;11.422;2023-05-16T02:01:00;10.80;99.90
33476;DHT22;19814;48.224;11.422;2023-05-16T02:03:28;10.80;99.90
33476;DHT22;19814;48.224;11.422;2023-05-16T02:05:54;10.80;99.90
33476;DHT22;19814;48.224;11.422;2023-05-16T02:08:19;10.80;99.90
33476;DHT22;19814;48.224;11.422;2023-05-16T02:10:45;10.70;99.90
33476;DHT22;19814;48.224;11.422;2023-05-16T02:13:10;10.70;99.90
33476;DHT22;19814;48.224;11.422;2023-05-16T02:15:36;10.70;99.90
33476;DHT22;19814;48.224;11.422;2023-05-16T02:18:01;10.60;99.90
33476;DHT22;19814;48.224;11.422;2023-05-16T02:20:27;10.60;99.90
33476;DHT22;19814;48.224;11.422;2023-05-16T02:22:52;10.60;99.90
33476;DHT22;19814;48.224;11.422;2023-05-16T02:25:18;10.50;99.90
33476;DHT22;19814;48.224;11.422;2023-05-16T02:27:44;10.50;99.90
33476;DHT22;19814;48.224;11.422;2023-05-16T02:30:10;10.50;99.90
33476;DHT22;19814;48.224;11.422;2023-05-16T02:32:39;10.40;99.90
33476;DHT22;19814;48.224;11.422;2023-05-16T02:35:05;10.40;99.90
33476;DHT22;19814;48.224;11.422;2023-05-16T02:37:31;10.40;99.90
33476;DHT22;19814;48.224;11.422;2023-05-16T02:39:57;10.40;99.90
33476;DHT22;19814;48.224;11.422;2023-05-16T02:42:24;10.40;99.90
33476;DHT22;19814;48.224;11.422;2023-05-16T02:44:49;10.40;99.90
33476;DHT22;19814;48.224;11.422;2023-05-16T02:47:15;10.40;99.90
33476;DHT22;19814;48.224;11.422;2023-05-16T02:49:40;10.30;99.90
33476;DHT22;19814;48.224;11.422;2023-05-16T02:52:06;10.30;99.90
33476;DHT22;19814;48.224;11.422;2023-05-16T02:54:32;10.30;99.90
33476;DHT22;19814;48.224;11.422;2023-05-16T02:56:58;10.30;99.90
33476;DHT22;19814;48.224;11.422;2023-05-16T02:59:23;10.30;99.90
33476;DHT22;19814;48.224;11.422;2023-05-16T03:01:49;10.40;99.90
33476;DHT22;19814;48.224;11.422;2023-05-16T03:04:14;10.30;99.90
33476;DHT22;19814;48.224;11.422;2023-05-16T03:06:41;10.30;99.90
33476;DHT22;19814;48.224;11.422;2023-05-16T03:09:06;10.40;99.90
33476;DHT22;19814;48.224;11.422;2023-05-16T03:11:32;10.40;99.90
33476;DHT22;19814;48.224;11.422;2023-05-16T03:13:57;10.30;99.90
33476;DHT22;19814;48.224;11.422;2023-05-16T03:16:24;10.40;99.90
33476;DHT22;19814;48.224;11.422;2023-05-16T03:18:50;10.40;99.90
33476;DHT22;19814;48.224;11.422;2023-05-16T03:21:15;10.30;99.90
33476;DHT22;19814;48.224;11.422;2023-05-16T03:23:41;10.40;99.90
33476;DHT22;19814;48.224;11.422;2023-05-16T03:26:06;10.40;99.90
33476;DHT22;19814;48.224;11.422;2023-05-16T03:28:32;10.40;99.90
33476;DHT22;19814;48.224;11.422;2023-05-16T03:30:58;10.40;99.90
33476;DHT22;19814;48.224;11.422;2023-05-16T03:33:23;10.30;99.90
33476;DHT22;19814;48.224;11.422;2023-05-16T03:35:49;10.40;99.90
33476;DHT22;19814;48.224;11.422;2023-05-16T03:38:15;10.30;99.90
33476;DHT22;19814;48.224;11.422;2023-05-16T03:40:41;10.30;99.90
33476;DHT22;19814;48.224;11.422;2023-05-16T03:43:07;10.20;99.90
33476;DHT22;19814;48.224;11.422;2023-05-16T03:45:33;10.20;99.90
33476;DHT22;19814;48.224;11.422;2023-05-16T03:47:58;10.30;99.90
33476;DHT22;19814;48.224;11.422;2023-05-16T03:50:24;10.30;99.90
33476;DHT22;19814;48.224;11.422;2023-05-16T03:52:50;10.30;99.90
33476;DHT22;19814;48.224;11.422;2023-05-16T03:55:17;10.30;99.90
33476;DHT22;19814;48.224;11.422;2023-05-16T03:57:42;10.30;99.90
33476;DHT22;19814;48.224;11.422;2023-05-16T04:00:09;10.30;99.90
33476;DHT22;19814;48.224;11.422;2023-05-16T04:02:37;10.30;99.90
33476;DHT22;19814;48.224;11.422;2023-05-16T04:05:02;10.30;99.90
33476;DHT22;19814;48.224;11.422;2023-05-16T04:07:28;10.30;99.90
33476;DHT22;19814;48.224;11.422;2023-05-16T04:09:54;10.30;99.90
33476;DHT22;19814;48.224;11.422;2023-05-16T04:12:20;10.30;99.90
33476;DHT22;19814;48.224;11.422;2023-05-16T04:14:47;10.30;99.90
33476;DHT22;19814;48.224;11.422;2023-05-16T04:17:13;10.30;99.90
33476;DHT22;19814;48.224;11.422;2023-05-16T04:19:38;10.30;99.90
33476;DHT22;19814;48.224;11.422;2023-05-16T04:22:04;10.30;99.90
33476;DHT22;19814;48.224;11.422;2023-05-16T04:24:30;10.30;99.90
33476;DHT22;19814;48.224;11.422;2023-05-16T04:26:55;10.30;99.90
33476;DHT22;19814;48.224;11.422;2023-05-16T04:29:21;10.30;99.90
33476;DHT22;19814;48.224;11.422;2023-05-16T04:31:46;10.30;99.90
33476;DHT22;19814;48.224;11.422;2023-05-16T04:34:12;10.40;99.90
33476;DHT22;19814;48.224;11.422;2023-05-16T04:36:39;10.40;99.90
33476;DHT22;19814;48.224;11.422;2023-05-16T04:39:05;10.40;99.90
33476;DHT22;19814;48.224;11.422;2023-05-16T04:41:31;10.50;99.90
33476;DHT22;19814;48.224;11.422;2023-05-16T04:43:59;10.50;99.90
33476;DHT22;19814;48.224;11.422;2023-05-16T04:46:25;10.50;99.90
33476;DHT22;19814;48.224;11.422;2023-05-16T04:48:50;10.60;99.90
33476;DHT22;19814;48.224;11.422;2023-05-16T04:51:16;10.50;99.90
33476;DHT22;19814;48.224;11.422;2023-05-16T04:53:42;10.50;99.90
33476;DHT22;19814;48.224;11.422;2023-05-16T04:56:07;10.50;99.90
33476;DHT22;19814;48.224;11.422;2023-05-16T04:58:33;10.50;99.90
33476;DHT22;19814;48.224;11.422;2023-05-16T05:00:58;10.60;99.90
33476;DHT22;19814;48.224;11.422;2023-05-16T05:03:24;10.60;99.90
33476;DHT22;19814;48.224;11.422;2023-05-16T05:05:49;10.60;99.90
33476;DHT22;19814;48.224;11.422;2023-05-16T05:08:16;10.60;99.90
33476;DHT22;19814;48.224;11.422;2023-05-16T05:10:42;10.70;99.90
33476;DHT22;19814;48.224;11.422;2023-05-16T05:13:09;10.80;99.90
33476;DHT22;19814;48.224;11.422;2023-05-16T05:15:35;10.80;99.90
33476;DHT22;19814;48.224;11.422;2023-05-16T05:18:00;10.90;99.90
33476;DHT22;19814;48.224;11.422;2023-05-16T05:20:26;11.00;99.90
33476;DHT22;19814;48.224;11.422;2023-05-16T05:22:51;11.20;99.90
33476;DHT22;19814;48.224;11.422;2023-05-16T05:25:17;11.30;99.90
33476;DHT22;19814;48.224;11.422;2023-05-16T05:27:45;11.50;99.90
33476;DHT22;19814;48.224;11.422;2023-05-16T05:30:10;11.50;99.90
33476;DHT22;19814;48.224;11.422;2023-05-16T05:32:36;11.70;99.90
33476;DHT22;19814;48.224;11.422;2023-05-16T05:35:02;11.80;99.90
33476;DHT22;19814;48.224;11.422;2023-05-16T05:37:28;11.90;99.90
33476;DHT22;19814;48.224;11.422;2023-05-16T05:39:54;11.90;99.90
33476;DHT22;19814;48.224;11.422;2023-05-16T05:42:20;11.90;99.90
33476;DHT22;19814;48.224;11.422;2023-05-16T05:44:45;12.00;99.90
33476;DHT22;19814;48.224;11.422;2023-05-16T05:47:11;12.00;99.90
33476;DHT22;19814;48.224;11.422;2023-05-16T05:49:37;12.00;99.90
33476;DHT22;19814;48.224;11.422;2023-05-16T05:52:03;12.10;99.90
33476;DHT22;19814;48.224;11.422;2023-05-16T05:54:29;12.10;99.90
33476;DHT22;19814;48.224;11.422;2023-05-16T05:56:56;12.10;99.90
33476;DHT22;19814;48.224;11.422;2023-05-16T05:59:21;12.00;99.90
33476;DHT22;19814;48.224;11.422;2023-05-16T06:01:47;12.00;99.90
33476;DHT22;19814;48.224;11.422;2023-05-16T06:04:20;11.90;99.90
33476;DHT22;19814;48.224;11.422;2023-05-16T06:06:46;11.90;99.90
33476;DHT22;19814;48.224;11.422;2023-05-16T06:09:12;11.90;99.90
33476;DHT22;19814;48.224;11.422;2023-05-16T06:11:39;11.90;99.90
33476;DHT22;19814;48.224;11.422;2023-05-16T06:14:05;11.90;99.90
33476;DHT22;19814;48.224;11.422;2023-05-16T06:16:31;11.90;99.90
33476;DHT22;19814;48.224;11.422;2023-05-16T06:18:57;12.00;99.90
33476;DHT22;19814;48.224;11.422;2023-05-16T06:21:22;12.00;99.90
33476;DHT22;19814;48.224;11.422;2023-05-16T06:23:48;12.00;99.90
33476;DHT22;19814;48.224;11.422;2023-05-16T06:26:13;12.00;99.90
33476;DHT22;19814;48.224;11.422;2023-05-16T06:28:39;12.00;99.90
33476;DHT22;19814;48.224;11.422;2023-05-16T06:31:04;12.00;99.90
33476;DHT22;19814;48.224;11.422;2023-05-16T06:33:30;12.00;99.90
33476;DHT22;19814;48.224;11.422;2023-05-16T06:35:55;11.90;99.90
33476;DHT22;19814;48.224;11.422;2023-05-16T06:38:21;11.90;99.90
33476;DHT22;19814;48.224;11.422;2023-05-16T06:40:46;11.90;99.90
33476;DHT22;19814;48.224;11.422;2023-05-16T06:43:12;11.90;99.90
33476;DHT22;19814;48.224;11.422;2023-05-16T06:45:38;11.80;99.90
33476;DHT22;19814;48.224;11.422;2023-05-16T06:48:05;11.80;99.90
33476;DHT22;19814;48.224;11.422;2023-05-16T06:50:31;11.90;99.90
33476;DHT22;19814;48.224;11.422;2023-05-16T06:52:57;11.90;99.90
33476;DHT22;19814;48.224;11.422;2023-05-16T06:55:23;12.00;99.90
33476;DHT22;19814;48.224;11.422;2023-05-16T06:57:48;12.20;99.90
33476;DHT22;19814;48.224;11.422;2023-05-16T07:00:14;12.40;99.90
33476;DHT22;19814;48.224;11.422;2023-05-16T07:02:40;12.60;99.90
33476;DHT22;19814;48.224;11.422;2023-05-16T07:05:06;12.90;99.90
33476;DHT22;19814;48.224;11.422;2023-05-16T07:07:31;13.00;99.90
33476;DHT22;19814;48.224;11.422;2023-05-16T07:09:57;13.10;99.90
33476;DHT22;19814;48.224;11.422;2023-05-16T07:12:23;13.10;99.90
33476;DHT22;19814;48.224;11.422;2023-05-16T07:14:48;13.10;99.90
33476;DHT22;19814;48.224;11.422;2023-05-16T07:17:14;13.10;99.90
33476;DHT22;19814;48.224;11.422;2023-05-16T07:19:39;13.20;99.90
33476;DHT22;19814;48.224;11.422;2023-05-16T07:22:05;13.20;99.90
33476;DHT22;19814;48.224;11.422;2023-05-16T07:24:30;13.20;99.90
33476;DHT22;19814;48.224;11.422;2023-05-16T07:26:56;13.30;99.90
33476;DHT22;19814;48.224;11.422;2023-05-16T07:29:21;13.40;99.90
33476;DHT22;19814;48.224;11.422;2023-05-16T07:31:47;13.40;99.90
33476;DHT22;19814;48.224;11.422;2023-05-16T07:34:12;13.50;99.90
33476;DHT22;19814;48.224;11.422;2023-05-16T07:36:38;13.50;99.90
33476;DHT22;19814;48.224;11.422;2023-05-16T07:39:03;13.50;99.90
33476;DHT22;19814;48.224;11.422;2023-05-16T07:41:30;13.50;99.90
33476;DHT22;19814;48.224;11.422;2023-05-16T07:43:55;13.60;99.90
33476;DHT22;19814;48.224;11.422;2023-05-16T07:46:21;13.50;99.90
33476;DHT22;19814;48.224;11.422;2023-05-16T07:48:47;13.50;99.90
33476;DHT22;19814;48.224;11.422;2023-05-16T07:51:12;13.50;99.90
33476;DHT22;19814;48.224;11.422;2023-05-16T07:53:38;13.50;99.90
33476;DHT22;19814;48.224;11.422;2023-05-16T07:56:03;13.40;99.90
33476;DHT22;19814;48.224;11.422;2023-05-16T07:58:29;13.30;99.90
33476;DHT22;19814;48.224;11.422;2023-05-16T08:00:55;13.30;99.90
33476;DHT22;19814;48.224;11.422;2023-05-16T08:03:20;13.20;99.90
33476;DHT22;19814;48.224;11.422;2023-05-16T08:05:46;13.20;99.90
33476;DHT22;19814;48.224;11.422;2023-05-16T08:08:13;13.10;99.90
33476;DHT22;19814;48.224;11.422;2023-05-16T08:10:39;13.00;99.90
33476;DHT22;19814;48.224;11.422;2023-05-16T08:13:04;13.00;99.90
33476;DHT22;19814;48.224;11.422;2023-05-16T08:15:30;13.10;99.90
33476;DHT22;19814;48.224;11.422;2023-05-16T08:17:59;13.00;99.90
33476;DHT22;19814;48.224;11.422;2023-05-16T08:20:25;13.00;99.90
33476;DHT22;19814;48.224;11.422;2023-05-16T08:22:51;13.00;99.90
33476;DHT22;19814;48.224;11.422;2023-05-16T08:25:16;13.00;99.90
33476;DHT22;19814;48.224;11.422;2023-05-16T08:27:44;13.00;99.90
33476;DHT22;19814;48.224;11.422;2023-05-16T08:30:11;13.00;99.90
33476;DHT22;19814;48.224;11.422;2023-05-16T08:32:37;13.00;99.90
33476;DHT22;19814;48.224;11.422;2023-05-16T08:35:03;13.00;99.90
33476;DHT22;19814;48.224;11.422;2023-05-16T08:37:29;12.90;99.90
33476;DHT22;19814;48.224;11.422;2023-05-16T08:39:54;12.90;99.90
33476;DHT22;19814;48.224;11.422;2023-05-16T08:42:20;12.80;99.90
33476;DHT22;19814;48.224;11.422;2023-05-16T08:44:45;12.80;99.90
33476;DHT22;19814;48.224;11.422;2023-05-16T08:47:17;12.70;99.90
33476;DHT22;19814;48.224;11.422;2023-05-16T08:49:46;12.70;99.90
33476;DHT22;19814;48.224;11.422;2023-05-16T08:52:13;12.70;99.90
33476;DHT22;19814;48.224;11.422;2023-05-16T08:54:41;12.70;99.90
33476;DHT22;19814;48.224;11.422;2023-05-16T08:57:08;12.70;99.90
33476;DHT22;19814;48.224;11.422;2023-05-16T08:59:33;12.70;99.90
33476;DHT22;19814;48.224;11.422;2023-05-16T09:01:59;12.60;99.90
33476;DHT22;19814;48.224;11.422;2023-05-16T09:04:25;12.60;99.90
33476;DHT22;19814;48.224;11.422;2023-05-16T09:06:52;12.60;99.90
33476;DHT22;19814;48.224;11.422;2023-05-16T09:09:17;12.50;99.90
33476;DHT22;19814;48.224;11.422;2023-05-16T09:11:44;12.60;99.90
33476;DHT22;19814;48.224;11.422;2023-05-16T09:14:10;12.60;99.90
33476;DHT22;19814;48.224;11.422;2023-05-16T09:16:35;12.60;99.90
33476;DHT22;19814;48.224;11.422;2023-05-16T09:19:01;12.70;99.90
33476;DHT22;19814;48.224;11.422;2023-05-16T09:21:29;12.80;99.90
33476;DHT22;19814;48.224;11.422;2023-05-16T09:23:56;12.80;99.90
33476;DHT22;19814;48.224;11.422;2023-05-16T09:26:26;12.90;99.90
33476;DHT22;19814;48.224;11.422;2023-05-16T09:28:53;12.90;99.90
33476;DHT22;19814;48.224;11.422;2023-05-16T09:31:24;12.90;99.90
33476;DHT22;19814;48.224;11.422;2023-05-16T09:34:01;12.90;99.90
33476;DHT22;19814;48.224;11.422;2023-05-16T09:36:26;12.80;99.90
33476;DHT22;19814;48.224;11.422;2023-05-16T09:38:52;12.80;99.90
33476;DHT22;19814;48.224;11.422;2023-05-16T09:41:20;12.70;99.90
33476;DHT22;19814;48.224;11.422;2023-05-16T09:43:46;12.60;99.90
33476;DHT22;19814;48.224;11.422;2023-05-16T09:46:15;12.60;99.90
33476;DHT22;19814;48.224;11.422;2023-05-16T09:48:44;12.50;99.90
33476;DHT22;19814;48.224;11.422;2023-05-16T09:51:11;12.50;99.90
33476;DHT22;19814;48.224;11.422;2023-05-16T09:53:37;12.50;99.90
33476;DHT22;19814;48.224;11.422;2023-05-16T09:56:11;12.50;99.90
33476;DHT22;19814;48.224;11.422;2023-05-16T09:58:40;12.50;99.90
33476;DHT22;19814;48.224;11.422;2023-05-16T10:01:06;12.40;99.90
33476;DHT22;19814;48.224;11.422;2023-05-16T10:03:37;12.40;99.90
33476;DHT22;19814;48.224;11.422;2023-05-16T10:06:04;12.40;99.90
33476;DHT22;19814;48.224;11.422;2023-05-16T10:08:32;12.40;99.90
33476;DHT22;19814;48.224;11.422;2023-05-16T10:11:02;12.40;99.90
33476;DHT22;19814;48.224;11.422;2023-05-16T10:13:30;12.40;99.90
33476;DHT22;19814;48.224;11.422;2023-05-16T10:15:57;12.50;99.90
33476;DHT22;19814;48.224;11.422;2023-05-16T10:18:29;12.50;99.90
33476;DHT22;19814;48.224;11.422;2023-05-16T10:21:05;12.50;99.90
33476;DHT22;19814;48.224;11.422;2023-05-16T10:23:32;12.50;99.90
33476;DHT22;19814;48.224;11.422;2023-05-16T10:26:02;12.40;99.90
33476;DHT22;19814;48.224;11.422;2023-05-16T10:28:28;12.30;99.90
33476;DHT22;19814;48.224;11.422;2023-05-16T10:30:54;12.30;99.90
33476;DHT22;19814;48.224;11.422;2023-05-16T10:33:20;12.20;99.90
33476;DHT22;19814;48.224;11.422;2023-05-16T10:35:46;12.20;99.90
33476;DHT22;19814;48.224;11.422;2023-05-16T10:38:14;12.20;99.90
33476;DHT22;19814;48.224;11.422;2023-05-16T10:40:40;12.20;99.90
33476;DHT22;19814;48.224;11.422;2023-05-16T10:43:07;12.20;99.90
33476;DHT22;19814;48.224;11.422;2023-05-16T10:45:34;12.20;99.90
33476;DHT22;19814;48.224;11.422;2023-05-16T10:48:04;12.20;99.90
33476;DHT22;19814;48.224;11.422;2023-05-16T10:50:41;12.20;99.90
33476;DHT22;19814;48.224;11.422;2023-05-16T11:16:51;12.60;99.90
33476;DHT22;19814;48.224;11.422;2023-05-16T11:19:44;12.60;99.90
33476;DHT22;19814;48.224;11.422;2023-05-16T11:27:23;13.00;99.90
33476;DHT22;19814;48.224;11.422;2023-05-16T11:29:49;13.10;99.90
33476;DHT22;19814;48.224;11.422;2023-05-16T11:32:19;13.20;99.90
33476;DHT22;19814;48.224;11.422;2023-05-16T11:34:46;13.30;99.90
33476;DHT22;19814;48.224;11.422;2023-05-16T11:37:13;13.30;99.90
33476;DHT22;19814;48.224;11.422;2023-05-16T11:39:39;13.30;99.90
33476;DHT22;19814;48.224;11.422;2023-05-16T11:42:05;13.20;99.90
33476;DHT22;19814;48.224;11.422;2023-05-16T11:44:30;13.20;99.90
33476;DHT22;19814;48.224;11.422;2023-05-16T11:47:04;13.20;99.90
33476;DHT22;19814;48.224;11.422;2023-05-16T11:49:30;13.30;99.90
33476;DHT22;19814;48.224;11.422;2023-05-16T11:51:56;13.30;99.90
33476;DHT22;19814;48.224;11.422;2023-05-16T11:54:23;13.40;99.90
33476;DHT22;19814;48.224;11.422;2023-05-16T11:56:49;13.50;99.90
33476;DHT22;19814;48.224;11.422;2023-05-16T11:59:16;13.70;99.90
33476;DHT22;19814;48.224;11.422;2023-05-16T12:01:42;13.90;99.90
33476;DHT22;19814;48.224;11.422;2023-05-16T12:04:12;13.90;99.90
33476;DHT22;19814;48.224;11.422;2023-05-16T12:06:38;14.20;99.90
33476;DHT22;19814;48.224;11.422;2023-05-16T12:09:05;14.30;99.90
33476;DHT22;19814;48.224;11.422;2023-05-16T12:11:37;14.50;99.90
33476;DHT22;19814;48.224;11.422;2023-05-16T12:14:04;14.50;99.90
33476;DHT22;19814;48.224;11.422;2023-05-16T12:16:30;14.70;99.90
33476;DHT22;19814;48.224;11.422;2023-05-16T12:18:57;14.90;99.90
33476;DHT22;19814;48.224;11.422;2023-05-16T12:21:23;14.90;99.90
33476;DHT22;19814;48.224;11.422;2023-05-16T12:23:48;15.10;99.90
33476;DHT22;19814;48.224;11.422;2023-05-16T12:26:14;15.40;99.90
33476;DHT22;19814;48.224;11.422;2023-05-16T12:28:42;15.40;99.90
33476;DHT22;19814;48.224;11.422;2023-05-16T12:31:17;15.60;99.90
33476;DHT22;19814;48.224;11.422;2023-05-16T12:33:44;15.70;99.90
33476;DHT22;19814;48.224;11.422;2023-05-16T12:36:13;15.80;99.90
33476;DHT22;19814;48.224;11.422;2023-05-16T12:38:40;15.90;99.90
33476;DHT22;19814;48.224;11.422;2023-05-16T12:41:06;15.90;99.90
33476;DHT22;19814;48.224;11.422;2023-05-16T12:43:31;16.00;99.90
33476;DHT22;19814;48.224;11.422;2023-05-16T12:45:57;16.00;99.90
33476;DHT22;19814;48.224;11.422;2023-05-16T12:48:31;16.00;99.90
33476;DHT22;19814;48.224;11.422;2023-05-16T12:51:12;16.00;99.90
33476;DHT22;19814;48.224;11.422;2023-05-16T12:53:45;15.90;99.90
33476;DHT22;19814;48.224;11.422;2023-05-16T12:56:11;15.80;99.90
33476;DHT22;19814;48.224;11.422;2023-05-16T12:58:38;15.70;99.90
33476;DHT22;19814;48.224;11.422;2023-05-16T13:01:04;15.50;99.90
33476;DHT22;19814;48.224;11.422;2023-05-16T13:03:31;15.40;99.90
33476;DHT22;19814;48.224;11.422;2023-05-16T13:05:57;15.20;99.90
33476;DHT22;19814;48.224;11.422;2023-05-16T13:08:23;14.80;99.90
33476;DHT22;19814;48.224;11.422;2023-05-16T13:10:49;14.50;99.90
33476;DHT22;19814;48.224;11.422;2023-05-16T13:13:15;14.30;99.90
33476;DHT22;19814;48.224;11.422;2023-05-16T13:15:41;14.10;99.90
33476;DHT22;19814;48.224;11.422;2023-05-16T13:18:07;14.00;99.90
33476;DHT22;19814;48.224;11.422;2023-05-16T13:20:32;13.80;99.90
33476;DHT22;19814;48.224;11.422;2023-05-16T13:22:58;13.70;99.90
33476;DHT22;19814;48.224;11.422;2023-05-16T13:25:23;13.70;99.90
33476;DHT22;19814;48.224;11.422;2023-05-16T13:27:49;13.70;99.90
33476;DHT22;19814;48.224;11.422;2023-05-16T13:30:14;13.60;99.90
33476;DHT22;19814;48.224;11.422;2023-05-16T13:32:40;13.60;99.90
33476;DHT22;19814;48.224;11.422;2023-05-16T13:35:07;13.60;99.90
33476;DHT22;19814;48.224;11.422;2023-05-16T13:37:33;13.50;99.90
33476;DHT22;19814;48.224;11.422;2023-05-16T13:39:58;13.50;99.90
33476;DHT22;19814;48.224;11.422;2023-05-16T13:42:24;13.40;99.90
33476;DHT22;19814;48.224;11.422;2023-05-16T13:44:49;13.30;99.90
33476;DHT22;19814;48.224;11.422;2023-05-16T13:47:15;13.20;99.90
33476;DHT22;19814;48.224;11.422;2023-05-16T13:49:41;13.20;99.90
33476;DHT22;19814;48.224;11.422;2023-05-16T13:52:06;12.90;99.90
33476;DHT22;19814;48.224;11.422;2023-05-16T13:54:32;12.70;99.90
33476;DHT22;19814;48.224;11.422;2023-05-16T13:56:58;12.50;99.90
33476;DHT22;19814;48.224;11.422;2023-05-16T13:59:23;12.30;99.90
33476;DHT22;19814;48.224;11.422;2023-05-16T14:01:50;12.20;99.90
33476;DHT22;19814;48.224;11.422;2023-05-16T14:04:15;12.10;99.90
33476;DHT22;19814;48.224;11.422;2023-05-16T14:06:41;11.80;99.90
33476;DHT22;19814;48.224;11.422;2023-05-16T14:09:06;11.70;99.90
33476;DHT22;19814;48.224;11.422;2023-05-16T14:11:32;11.80;99.90
33476;DHT22;19814;48.224;11.422;2023-05-16T14:13:58;11.80;99.90
33476;DHT22;19814;48.224;11.422;2023-05-16T14:16:24;11.80;99.90
33476;DHT22;19814;48.224;11.422;2023-05-16T14:18:50;11.80;99.90
33476;DHT22;19814;48.224;11.422;2023-05-16T14:21:16;11.90;99.90
33476;DHT22;19814;48.224;11.422;2023-05-16T14:23:41;11.90;99.90
33476;DHT22;19814;48.224;11.422;2023-05-16T14:26:07;12.00;99.90
33476;DHT22;19814;48.224;11.422;2023-05-16T14:28:32;12.10;99.90
33476;DHT22;19814;48.224;11.422;2023-05-16T14:30:59;12.20;99.90
33476;DHT22;19814;48.224;11.422;2023-05-16T14:33:25;12.30;99.90
33476;DHT22;19814;48.224;11.422;2023-05-16T14:35:50;12.30;99.90
33476;DHT22;19814;48.224;11.422;2023-05-16T14:38:16;12.40;99.90
33476;DHT22;19814;48.224;11.422;2023-05-16T14:40:42;12.40;99.90
33476;DHT22;19814;48.224;11.422;2023-05-16T14:43:07;12.40;99.90
33476;DHT22;19814;48.224;11.422;2023-05-16T14:45:33;12.30;99.90
33476;DHT22;19814;48.224;11.422;2023-05-16T14:47:59;12.30;99.90
33476;DHT22;19814;48.224;11.422;2023-05-16T14:50:24;12.30;99.90
33476;DHT22;19814;48.224;11.422;2023-05-16T14:52:50;12.30;99.90
33476;DHT22;19814;48.224;11.422;2023-05-16T14:55:17;12.20;99.90
33476;DHT22;19814;48.224;11.422;2023-05-16T14:57:42;12.20;99.90
33476;DHT22;19814;48.224;11.422;2023-05-16T15:00:08;12.30;99.90
33476;DHT22;19814;48.224;11.422;2023-05-16T15:02:35;12.20;99.90
33476;DHT22;19814;48.224;11.422;2023-05-16T15:05:00;12.20;99.90
33476;DHT22;19814;48.224;11.422;2023-05-16T15:07:26;12.20;99.90
33476;DHT22;19814;48.224;11.422;2023-05-16T15:09:51;12.10;99.90
33476;DHT22;19814;48.224;11.422;2023-05-16T15:12:17;12.20;99.90
33476;DHT22;19814;48.224;11.422;2023-05-16T15:14:42;12.20;99.90
33476;DHT22;19814;48.224;11.422;2023-05-16T15:17:08;12.20;99.90
33476;DHT22;19814;48.224;11.422;2023-05-16T15:19:33;12.20;99.90
33476;DHT22;19814;48.224;11.422;2023-05-16T15:21:59;12.30;99.90
33476;DHT22;19814;48.224;11.422;2023-05-16T15:24:24;12.30;99.90
33476;DHT22;19814;48.224;11.422;2023-05-16T15:26:50;12.30;99.90
33476;DHT22;19814;48.224;11.422;2023-05-16T15:29:16;12.30;99.90
33476;DHT22;19814;48.224;11.422;2023-05-16T15:31:43;12.30;99.90
33476;DHT22;19814;48.224;11.422;2023-05-16T15:34:09;12.30;99.90
33476;DHT22;19814;48.224;11.422;2023-05-16T15:36:35;12.30;99.90
33476;DHT22;19814;48.224;11.422;2023-05-16T15:39:01;12.40;99.90
33476;DHT22;19814;48.224;11.422;2023-05-16T15:41:27;12.40;99.90
33476;DHT22;19814;48.224;11.422;2023-05-16T15:43:52;12.40;99.90
33476;DHT22;19814;48.224;11.422;2023-05-16T15:46:18;12.40;99.90
33476;DHT22;19814;48.224;11.422;2023-05-16T15:48:43;12.50;99.90
33476;DHT22;19814;48.224;11.422;2023-05-16T15:51:12;12.40;99.90
33476;DHT22;19814;48.224;11.422;2023-05-16T15:53:39;12.40;99.90